createdAt,value
2022-10-30T00:02:04.994Z,6.20
2022-10-30T00:05:07.737Z,6.30
2022-10-30T00:08:11.224Z,6.65
2022-10-30T00:11:14.198Z,6.15
2022-10-30T00:14:16.461Z,6.18
2022-10-30T00:17:18.697Z,6.27
2022-10-30T00:20:20.936Z,6.43
2022-10-30T00:23:23.256Z,6.07
2022-10-30T00:26:25.717Z,6.45
2022-10-30T00:29:27.909Z,6.10
2022-10-30T00:32:30.143Z,6.33
2022-10-30T00:35:32.670Z,6.53
2022-10-30T00:38:35.097Z,6.82
2022-10-30T00:41:39.550Z,6.75
2022-10-30T00:44:44.587Z,6.10
2022-10-30T00:47:52.996Z,6.50
2022-10-30T00:50:57.892Z,6.40
2022-10-30T00:54:03.120Z,6.35
2022-10-30T00:57:08.071Z,6.60
2022-10-30T01:00:12.163Z,5.88
2022-10-30T01:03:15.656Z,6.57
2022-10-30T01:06:18.446Z,6.57
2022-10-30T01:09:22.079Z,6.38
2022-10-30T01:12:24.333Z,6.70
2022-10-30T01:15:43.589Z,6.72
2022-10-30T01:19:03.606Z,6.70
2022-10-30T01:22:40.492Z,6.60
2022-10-30T01:25:55.407Z,6.00
2022-10-30T01:29:22.376Z,6.55
2022-10-30T01:32:57.316Z,5.97
2022-10-30T01:36:11.726Z,6.17
2022-10-30T01:39:27.545Z,6.00
2022-10-30T01:42:52.136Z,6.18
2022-10-30T01:46:25.273Z,6.60
2022-10-30T01:49:46.164Z,6.55
2022-10-30T01:52:54.524Z,6.37
2022-10-30T01:56:18.978Z,5.67
2022-10-30T01:59:25.828Z,6.43
2022-10-30T02:02:28.594Z,6.47
2022-10-30T02:05:43.378Z,7.10
2022-10-30T02:08:46.029Z,6.60
2022-10-30T02:11:49.891Z,6.77
2022-10-30T02:14:57.941Z,6.53
2022-10-30T02:18:02.739Z,6.60
2022-10-30T02:21:05.332Z,6.60
2022-10-30T02:24:07.665Z,5.87
2022-10-30T02:27:10.593Z,6.20
2022-10-30T02:30:15.795Z,6.18
2022-10-30T02:36:25.366Z,6.07
2022-10-30T02:39:28.991Z,6.37
2022-10-30T02:42:31.397Z,6.47
2022-10-30T02:45:33.661Z,6.25
2022-10-30T02:48:35.892Z,6.32
2022-10-30T02:51:38.119Z,6.43
2022-10-30T02:54:40.350Z,6.40
2022-10-30T02:57:43.506Z,5.87
2022-10-30T03:00:45.980Z,6.13
2022-10-30T03:03:48.293Z,6.30
2022-10-30T03:06:50.526Z,5.78
2022-10-30T03:09:54.286Z,6.07
2022-10-30T03:12:56.502Z,6.30
2022-10-30T03:16:02.414Z,5.72
2022-10-30T03:19:06.968Z,6.13
2022-10-30T03:22:09.425Z,6.38
2022-10-30T03:25:13.576Z,6.67
2022-10-30T03:28:15.829Z,6.90
2022-10-30T03:31:19.436Z,6.93
2022-10-30T03:34:24.580Z,6.82
2022-10-30T03:37:26.889Z,6.15
2022-10-30T03:40:29.096Z,5.80
2022-10-30T03:43:31.503Z,6.07
2022-10-30T03:46:33.832Z,5.63
2022-10-30T03:49:49.712Z,5.95
2022-10-30T03:52:56.902Z,6.00
2022-10-30T03:56:02.302Z,5.97
2022-10-30T03:59:13.383Z,6.40
2022-10-30T04:02:17.494Z,6.30
2022-10-30T04:05:22.654Z,6.35
2022-10-30T04:08:27.795Z,6.18
2022-10-30T04:11:30.255Z,6.20
2022-10-30T04:14:32.514Z,5.97
2022-10-30T04:17:35.500Z,6.60
2022-10-30T04:20:40.286Z,6.18
2022-10-30T04:23:42.733Z,5.45
2022-10-30T04:26:45.264Z,6.23
2022-10-30T04:29:47.676Z,6.50
2022-10-30T04:32:51.852Z,6.10
2022-10-30T04:35:54.878Z,5.93
2022-10-30T04:38:57.342Z,6.28
2022-10-30T04:42:01.993Z,6.10
2022-10-30T04:45:14.865Z,5.50
2022-10-30T04:48:19.129Z,6.18
2022-10-30T04:51:24.075Z,5.53
2022-10-30T04:54:28.647Z,5.78
2022-10-30T04:57:34.393Z,5.80
2022-10-30T05:00:36.688Z,5.43
2022-10-30T05:03:48.100Z,6.15
2022-10-30T05:06:52.858Z,5.72
2022-10-30T05:09:55.088Z,5.68
2022-10-30T05:13:00.136Z,5.50
2022-10-30T05:16:02.414Z,6.23
2022-10-30T05:19:04.802Z,6.57
2022-10-30T05:22:10.390Z,5.22
2022-10-30T05:25:12.960Z,5.60
2022-10-30T05:28:15.779Z,6.43
2022-10-30T05:31:25.084Z,5.13
2022-10-30T05:34:50.234Z,6.05
2022-10-30T05:37:56.222Z,5.90
2022-10-30T05:40:58.549Z,6.05
2022-10-30T05:44:00.925Z,5.30
2022-10-30T05:47:03.316Z,5.47
2022-10-30T05:50:09.412Z,6.00
2022-10-30T05:53:12.004Z,5.68
2022-10-30T05:56:15.278Z,6.05
2022-10-30T05:59:19.029Z,6.00
2022-10-30T06:02:22.077Z,5.80
2022-10-30T06:05:24.376Z,5.60
2022-10-30T06:08:26.557Z,5.43
2022-10-30T06:11:32.087Z,6.07
2022-10-30T06:14:35.402Z,5.47
2022-10-30T06:17:37.952Z,5.73
2022-10-30T06:21:12.356Z,5.80
2022-10-30T06:24:39.755Z,5.60
2022-10-30T06:28:01.038Z,5.60
2022-10-30T06:31:06.391Z,5.80
2022-10-30T06:34:09.315Z,5.73
2022-10-30T06:37:14.600Z,5.00
2022-10-30T06:40:17.352Z,5.97
2022-10-30T06:43:22.472Z,5.50
2022-10-30T06:46:33.674Z,5.57
2022-10-30T06:49:36.335Z,5.70
2022-10-30T06:52:38.843Z,5.63
2022-10-30T06:55:41.963Z,5.32
2022-10-30T06:58:57.360Z,5.65
2022-10-30T07:02:11.496Z,5.70
2022-10-30T07:05:20.210Z,5.23
2022-10-30T07:08:22.617Z,5.45
2022-10-30T07:11:25.299Z,5.40
2022-10-30T07:14:56.789Z,5.82
2022-10-30T07:18:10.729Z,5.27
2022-10-30T07:21:13.058Z,5.60
2022-10-30T07:24:16.236Z,5.70
2022-10-30T07:27:47.988Z,5.45
2022-10-30T07:31:11.946Z,4.68
2022-10-30T07:34:32.680Z,5.23
2022-10-30T07:38:10.199Z,5.33
2022-10-30T07:41:21.660Z,5.78
2022-10-30T07:44:30.903Z,5.80
2022-10-30T07:47:53.908Z,5.82
2022-10-30T07:51:34.599Z,4.77
2022-10-30T07:54:37.656Z,5.70
2022-10-30T07:58:02.670Z,5.28
2022-10-30T08:01:23.823Z,5.05
2022-10-30T08:04:26.791Z,4.93
2022-10-30T08:07:36.198Z,5.50
2022-10-30T08:10:38.504Z,5.17
2022-10-30T08:13:40.741Z,4.90
2022-10-30T08:16:42.959Z,5.00
2022-10-30T08:19:45.244Z,4.85
2022-10-30T08:22:55.747Z,5.50
2022-10-30T08:26:00.651Z,5.47
2022-10-30T08:29:04.107Z,5.57
2022-10-30T08:32:06.829Z,5.10
2022-10-30T08:35:28.582Z,4.93
2022-10-30T08:38:33.529Z,5.13
2022-10-30T08:42:00.149Z,5.07
2022-10-30T08:45:07.652Z,5.60
2022-10-30T08:48:35.963Z,4.72
2022-10-30T08:51:39.105Z,5.45
2022-10-30T08:54:43.000Z,5.50
2022-10-30T08:57:45.866Z,5.40
2022-10-30T09:00:48.074Z,5.47
2022-10-30T09:03:50.235Z,4.80
2022-10-30T09:07:13.176Z,5.13
2022-10-30T09:10:34.161Z,5.80
2022-10-30T09:13:36.501Z,4.73
2022-10-30T09:16:40.518Z,5.07
2022-10-30T09:19:44.121Z,5.43
2022-10-30T09:22:50.679Z,4.78
2022-10-30T09:25:57.812Z,5.27
2022-10-30T09:29:19.376Z,4.30
2022-10-30T09:33:02.686Z,4.80
2022-10-30T09:36:25.424Z,5.00
2022-10-30T09:39:30.007Z,5.00
2022-10-30T09:43:09.126Z,4.60
2022-10-30T09:46:20.010Z,4.87
2022-10-30T09:49:53.352Z,5.13
2022-10-30T09:53:11.777Z,4.97
2022-10-30T09:56:38.453Z,5.22
2022-10-30T10:00:03.212Z,5.10
2022-10-30T10:03:17.838Z,4.60
2022-10-30T10:06:47.530Z,5.05
2022-10-30T10:10:16.154Z,5.40
2022-10-30T10:13:28.335Z,5.10
2022-10-30T10:16:35.268Z,4.53
2022-10-30T10:20:01.890Z,5.10
2022-10-30T10:23:17.571Z,5.00
2022-10-30T10:26:45.280Z,4.95
2022-10-30T10:30:11.150Z,4.95
2022-10-30T10:33:25.419Z,5.20
2022-10-30T10:36:46.516Z,5.10
2022-10-30T10:40:25.770Z,4.68
2022-10-30T10:43:51.147Z,5.00
2022-10-30T10:47:32.300Z,4.80
2022-10-30T10:50:42.097Z,5.10
2022-10-30T10:53:58.805Z,4.90
2022-10-30T10:57:05.368Z,4.70
2022-10-30T11:00:13.341Z,4.60
2022-10-30T11:03:23.229Z,4.90
2022-10-30T11:06:32.382Z,4.90
2022-10-30T11:09:34.611Z,4.07
2022-10-30T11:12:37.533Z,4.70
2022-10-30T11:15:51.368Z,4.78
2022-10-30T11:19:02.953Z,5.05
2022-10-30T11:22:21.909Z,5.13
2022-10-30T11:25:30.164Z,4.20
2022-10-30T11:28:44.865Z,4.50
2022-10-30T11:31:47.228Z,4.15
2022-10-30T11:35:00.622Z,4.13
2022-10-30T11:38:20.189Z,4.40
2022-10-30T11:41:22.559Z,4.60
2022-10-30T11:44:30.729Z,4.60
2022-10-30T11:47:37.237Z,4.57
2022-10-30T11:50:47.395Z,5.03
2022-10-30T11:53:50.918Z,4.33
2022-10-30T11:56:54.259Z,4.90
2022-10-30T12:00:02.071Z,4.35
2022-10-30T12:03:35.142Z,5.15
2022-10-30T12:06:37.344Z,5.28
2022-10-30T12:09:47.389Z,4.67
2022-10-30T12:12:51.417Z,4.53
2022-10-30T12:16:16.551Z,5.10
2022-10-30T12:19:21.858Z,4.95
2022-10-30T12:22:27.359Z,4.90
2022-10-30T12:25:32.283Z,4.80
2022-10-30T12:28:35.513Z,4.63
2022-10-30T12:32:01.282Z,4.35
2022-10-30T12:35:14.563Z,4.55
2022-10-30T12:38:35.639Z,4.13
2022-10-30T12:41:47.895Z,4.23
2022-10-30T12:45:02.662Z,4.40
2022-10-30T12:48:23.634Z,4.35
2022-10-30T12:51:32.095Z,4.55
2022-10-30T12:54:39.583Z,4.40
2022-10-30T12:58:04.744Z,4.90
2022-10-30T13:01:36.830Z,4.47
2022-10-30T13:04:45.058Z,4.00
2022-10-30T13:08:25.441Z,4.50
2022-10-30T13:11:36.513Z,4.28
2022-10-30T13:14:47.722Z,4.57
2022-10-30T13:17:50.374Z,4.47
2022-10-30T13:21:31.523Z,4.80
2022-10-30T13:24:57.902Z,4.30
2022-10-30T13:28:25.845Z,4.50
2022-10-30T13:31:46.320Z,4.17
2022-10-30T13:35:06.213Z,4.20
2022-10-30T13:38:35.652Z,4.68
2022-10-30T13:41:52.768Z,3.97
2022-10-30T13:45:14.563Z,4.50
2022-10-30T13:48:51.146Z,4.70
2022-10-30T13:52:15.903Z,4.67
2022-10-30T13:55:25.958Z,4.50
2022-10-30T13:58:50.674Z,4.45
2022-10-30T14:02:17.623Z,4.55
2022-10-30T14:05:41.744Z,4.13
2022-10-30T14:08:57.866Z,4.20
2022-10-30T14:12:37.838Z,4.40
2022-10-30T14:15:47.009Z,4.15
2022-10-30T14:19:04.215Z,4.22
2022-10-30T14:22:23.877Z,4.60
2022-10-30T14:25:26.066Z,4.53
2022-10-30T14:28:29.181Z,4.25
2022-10-30T14:31:36.865Z,4.03
2022-10-30T14:34:57.134Z,4.35
2022-10-30T14:38:22.923Z,4.10
2022-10-30T14:41:27.417Z,4.30
2022-10-30T14:44:42.338Z,4.07
2022-10-30T14:48:23.469Z,3.60
2022-10-30T14:51:59.485Z,4.40
2022-10-30T14:55:20.416Z,4.53
2022-10-30T14:58:26.182Z,4.27
2022-10-30T15:01:42.641Z,3.85
2022-10-30T15:05:13.272Z,4.10
2022-10-30T15:08:30.555Z,4.60
2022-10-30T15:12:00.214Z,4.20
2022-10-30T15:15:09.627Z,4.10
2022-10-30T15:18:19.406Z,4.10
2022-10-30T15:21:25.515Z,3.95
2022-10-30T15:24:32.405Z,4.28
2022-10-30T15:27:40.174Z,3.93
2022-10-30T15:30:59.673Z,4.33
2022-10-30T15:34:01.897Z,4.35
2022-10-30T15:37:13.511Z,4.10
2022-10-30T15:40:20.658Z,4.38
2022-10-30T15:43:28.564Z,3.77
2022-10-30T15:46:31.593Z,4.53
2022-10-30T15:49:36.192Z,4.00
2022-10-30T15:52:42.380Z,4.10
2022-10-30T15:55:44.653Z,4.22
2022-10-30T15:58:57.478Z,4.50
2022-10-30T16:01:59.858Z,4.27
2022-10-30T16:05:02.224Z,4.82
2022-10-30T16:08:14.355Z,4.15
2022-10-30T16:11:16.834Z,3.97
2022-10-30T16:14:24.314Z,4.53
2022-10-30T16:17:27.299Z,3.87
2022-10-30T16:20:29.664Z,3.70
2022-10-30T16:23:41.877Z,4.68
2022-10-30T16:26:45.366Z,4.03
2022-10-30T16:29:53.865Z,4.00
2022-10-30T16:32:56.582Z,3.93
2022-10-30T16:36:00.134Z,4.18
2022-10-30T16:39:03.585Z,4.35
2022-10-30T16:42:05.847Z,4.10
2022-10-30T16:45:11.244Z,4.37
2022-10-30T16:48:24.622Z,4.17
2022-10-30T16:51:27.460Z,4.03
2022-10-30T16:54:37.130Z,4.50
2022-10-30T16:57:44.737Z,4.00
2022-10-30T17:00:53.470Z,4.10
2022-10-30T17:03:56.474Z,4.40
2022-10-30T17:07:19.849Z,4.43
2022-10-30T17:10:36.218Z,3.90
2022-10-30T17:13:57.071Z,4.70
2022-10-30T17:17:02.039Z,4.13
2022-10-30T17:20:22.750Z,4.20
2022-10-30T17:23:27.433Z,3.55
2022-10-30T17:26:35.379Z,3.65
2022-10-30T17:29:37.547Z,4.30
2022-10-30T17:32:44.973Z,4.07
2022-10-30T17:35:47.196Z,4.37
2022-10-30T17:38:49.495Z,4.47
2022-10-30T17:41:56.073Z,3.72
2022-10-30T17:44:58.275Z,4.00
2022-10-30T17:48:00.776Z,3.73
2022-10-30T17:51:03.473Z,4.10
2022-10-30T17:54:13.389Z,4.00
2022-10-30T17:57:16.703Z,4.10
2022-10-30T18:00:19.115Z,3.88
2022-10-30T18:03:21.396Z,3.80
2022-10-30T18:06:26.249Z,4.00
2022-10-30T18:09:28.456Z,4.55
2022-10-30T18:12:30.678Z,3.90
2022-10-30T18:15:40.875Z,4.25
2022-10-30T18:18:44.135Z,3.93
2022-10-30T18:21:48.464Z,4.47
2022-10-30T18:24:50.729Z,4.25
2022-10-30T18:27:53.379Z,4.28
2022-10-30T18:30:58.437Z,4.10
2022-10-30T18:34:00.956Z,3.90
2022-10-30T18:37:03.147Z,3.87
2022-10-30T18:40:05.902Z,4.30
2022-10-30T18:43:11.484Z,3.97
2022-10-30T18:46:14.599Z,4.57
2022-10-30T18:49:18.940Z,4.33
2022-10-30T18:52:21.224Z,4.17
2022-10-30T18:55:35.789Z,4.30
2022-10-30T18:58:38.133Z,4.65
2022-10-30T19:01:40.601Z,4.45
2022-10-30T19:04:42.889Z,3.90
2022-10-30T19:07:45.100Z,4.30
2022-10-30T19:10:47.845Z,4.88
2022-10-30T19:13:51.725Z,4.30
2022-10-30T19:16:53.976Z,4.55
2022-10-30T19:19:56.174Z,3.97
2022-10-30T19:22:58.997Z,4.27
2022-10-30T19:26:01.647Z,4.47
2022-10-30T19:29:03.882Z,3.85
2022-10-30T19:32:06.114Z,4.55
2022-10-30T19:35:08.900Z,4.10
2022-10-30T19:38:12.659Z,4.50
2022-10-30T19:41:14.979Z,3.70
2022-10-30T19:44:17.245Z,4.15
2022-10-30T19:47:19.586Z,3.80
2022-10-30T19:50:31.097Z,4.17
2022-10-30T19:53:33.289Z,4.07
2022-10-30T19:56:35.769Z,4.00
2022-10-30T19:59:37.928Z,3.88
2022-10-30T20:02:40.166Z,4.38
2022-10-30T20:05:50.245Z,4.27
2022-10-30T20:08:52.516Z,4.17
2022-10-30T20:11:54.758Z,4.40
2022-10-30T20:14:56.941Z,4.25
2022-10-30T20:17:59.988Z,4.47
2022-10-30T20:21:05.979Z,3.83
2022-10-30T20:24:09.688Z,4.20
2022-10-30T20:27:11.968Z,3.97
2022-10-30T20:30:19.125Z,3.90
2022-10-30T20:33:22.411Z,4.38
2022-10-30T20:36:24.619Z,4.13
2022-10-30T20:39:26.819Z,4.23
2022-10-30T20:42:34.379Z,4.53
2022-10-30T20:45:39.232Z,4.15
2022-10-30T20:48:41.645Z,4.00
2022-10-30T20:51:43.854Z,4.20
2022-10-30T20:54:46.219Z,4.63
2022-10-30T20:57:48.479Z,4.78
2022-10-30T21:00:53.286Z,4.22
2022-10-30T21:04:00.581Z,4.47
2022-10-30T21:07:04.021Z,4.40
2022-10-30T21:10:06.661Z,4.43
2022-10-30T21:13:10.973Z,3.88
2022-10-30T21:16:13.638Z,4.53
2022-10-30T21:19:15.873Z,4.25
2022-10-30T21:22:18.076Z,4.20
2022-10-30T21:25:20.377Z,4.70
2022-10-30T21:28:22.616Z,4.47
2022-10-30T21:31:24.819Z,4.30
2022-10-30T21:34:27.282Z,4.03
2022-10-30T21:37:29.638Z,4.40
2022-10-30T21:40:31.845Z,4.70
2022-10-30T21:43:34.167Z,4.38
2022-10-30T21:46:36.413Z,4.75
2022-10-30T21:49:38.608Z,4.20
2022-10-30T21:52:40.969Z,4.10
2022-10-30T21:55:43.128Z,4.30
2022-10-30T21:58:46.189Z,4.68
2022-10-30T22:01:48.475Z,4.30
2022-10-30T22:04:50.823Z,4.22
2022-10-30T22:07:53.065Z,4.30
2022-10-30T22:10:55.238Z,4.03
2022-10-30T22:13:59.909Z,4.88
2022-10-30T22:17:02.131Z,4.53
2022-10-30T22:20:04.686Z,4.63
2022-10-30T22:23:06.918Z,4.70
2022-10-30T22:26:14.523Z,4.57
2022-10-30T22:29:16.751Z,5.03
2022-10-30T22:32:18.961Z,4.80
2022-10-30T22:35:21.152Z,4.60
2022-10-30T22:38:23.482Z,4.57
2022-10-30T22:41:27.109Z,4.27
2022-10-30T22:44:30.917Z,4.35
2022-10-30T22:47:33.188Z,4.43
2022-10-30T22:50:36.950Z,4.80
2022-10-30T22:53:39.657Z,4.37
2022-10-30T22:56:42.301Z,4.63
2022-10-30T22:59:44.515Z,4.43
2022-10-30T23:02:46.774Z,4.55
2022-10-30T23:05:59.560Z,4.10
2022-10-30T23:09:05.856Z,4.40
2022-10-30T23:12:08.193Z,4.63
2022-10-30T23:15:10.833Z,4.25
2022-10-30T23:18:13.211Z,3.92
2022-10-30T23:21:20.981Z,4.03
2022-10-30T23:24:26.584Z,4.33
2022-10-30T23:27:28.780Z,4.17
2022-10-30T23:30:30.960Z,4.43
2022-10-30T23:33:33.423Z,4.55
2022-10-30T23:36:36.001Z,4.55
2022-10-30T23:39:38.214Z,4.50
2022-10-30T23:42:40.407Z,4.33
2022-10-30T23:45:42.578Z,4.13
2022-10-30T23:48:44.793Z,4.25
2022-10-30T23:51:47.026Z,4.75
2022-10-30T23:54:49.288Z,4.50
2022-10-30T23:57:51.608Z,4.03
